sensor_id;sensor_type;location;lat;lon;timestamp;P1;durP1;ratioP1;P2;durP2;ratioP2
56141;SDS011;42018;48.588;10.836;2023-04-24T00:00:30;6.63;;;1.67;;
56141;SDS011;42018;48.588;10.836;2023-04-24T00:03:16;3.70;;;1.65;;
56141;SDS011;42018;48.588;10.836;2023-04-24T00:06:01;3.60;;;1.55;;
56141;SDS011;42018;48.588;10.836;2023-04-24T00:08:47;3.92;;;1.55;;
56141;SDS011;42018;48.588;10.836;2023-04-24T00:11:33;3.05;;;1.60;;
56141;SDS011;42018;48.588;10.836;2023-04-24T00:14:18;6.40;;;1.60;;
56141;SDS011;42018;48.588;10.836;2023-04-24T00:17:03;3.08;;;1.50;;
56141;SDS011;42018;48.588;10.836;2023-04-24T00:19:51;3.55;;;1.60;;
56141;SDS011;42018;48.588;10.836;2023-04-24T00:22:43;5.68;;;1.73;;
56141;SDS011;42018;48.588;10.836;2023-04-24T00:25:28;2.47;;;1.40;;
56141;SDS011;42018;48.588;10.836;2023-04-24T00:28:14;4.40;;;1.58;;
56141;SDS011;42018;48.588;10.836;2023-04-24T00:30:59;3.58;;;1.50;;
56141;SDS011;42018;48.588;10.836;2023-04-24T00:33:44;2.83;;;1.42;;
56141;SDS011;42018;48.588;10.836;2023-04-24T00:36:30;2.72;;;1.30;;
56141;SDS011;42018;48.588;10.836;2023-04-24T00:39:16;2.65;;;1.45;;
56141;SDS011;42018;48.588;10.836;2023-04-24T00:42:01;2.75;;;1.52;;
56141;SDS011;42018;48.588;10.836;2023-04-24T00:44:46;2.53;;;1.40;;
56141;SDS011;42018;48.588;10.836;2023-04-24T00:47:35;3.35;;;1.50;;
56141;SDS011;42018;48.588;10.836;2023-04-24T00:50:21;2.55;;;1.30;;
56141;SDS011;42018;48.588;10.836;2023-04-24T00:53:06;4.47;;;1.55;;
56141;SDS011;42018;48.588;10.836;2023-04-24T00:55:52;3.83;;;1.63;;
56141;SDS011;42018;48.588;10.836;2023-04-24T00:58:37;3.30;;;1.50;;
56141;SDS011;42018;48.588;10.836;2023-04-24T01:01:23;2.90;;;1.40;;
56141;SDS011;42018;48.588;10.836;2023-04-24T01:04:09;2.85;;;1.33;;
56141;SDS011;42018;48.588;10.836;2023-04-24T01:06:56;3.08;;;1.40;;
56141;SDS011;42018;48.588;10.836;2023-04-24T01:09:42;4.07;;;1.52;;
56141;SDS011;42018;48.588;10.836;2023-04-24T01:12:32;3.67;;;1.42;;
56141;SDS011;42018;48.588;10.836;2023-04-24T01:15:17;2.97;;;1.50;;
56141;SDS011;42018;48.588;10.836;2023-04-24T01:18:03;3.58;;;1.50;;
56141;SDS011;42018;48.588;10.836;2023-04-24T01:20:49;5.95;;;1.70;;
56141;SDS011;42018;48.588;10.836;2023-04-24T01:23:37;2.80;;;1.40;;
56141;SDS011;42018;48.588;10.836;2023-04-24T01:26:23;2.67;;;1.40;;
56141;SDS011;42018;48.588;10.836;2023-04-24T01:29:10;3.35;;;1.70;;
56141;SDS011;42018;48.588;10.836;2023-04-24T01:31:56;3.38;;;1.55;;
56141;SDS011;42018;48.588;10.836;2023-04-24T01:34:43;3.50;;;1.33;;
56141;SDS011;42018;48.588;10.836;2023-04-24T01:37:29;3.00;;;1.60;;
56141;SDS011;42018;48.588;10.836;2023-04-24T01:40:17;2.88;;;1.45;;
56141;SDS011;42018;48.588;10.836;2023-04-24T01:43:02;2.92;;;1.30;;
56141;SDS011;42018;48.588;10.836;2023-04-24T01:45:47;3.15;;;1.30;;
56141;SDS011;42018;48.588;10.836;2023-04-24T01:51:21;2.60;;;1.30;;
56141;SDS011;42018;48.588;10.836;2023-04-24T01:54:07;2.88;;;1.30;;
56141;SDS011;42018;48.588;10.836;2023-04-24T01:56:52;4.13;;;1.25;;
56141;SDS011;42018;48.588;10.836;2023-04-24T01:59:37;2.22;;;1.20;;
56141;SDS011;42018;48.588;10.836;2023-04-24T02:02:23;2.08;;;1.20;;
56141;SDS011;42018;48.588;10.836;2023-04-24T02:05:09;2.38;;;1.20;;
56141;SDS011;42018;48.588;10.836;2023-04-24T02:07:54;3.03;;;1.23;;
56141;SDS011;42018;48.588;10.836;2023-04-24T02:10:40;2.60;;;1.40;;
56141;SDS011;42018;48.588;10.836;2023-04-24T02:13:25;2.58;;;1.30;;
56141;SDS011;42018;48.588;10.836;2023-04-24T02:16:10;2.65;;;1.30;;
56141;SDS011;42018;48.588;10.836;2023-04-24T02:18:56;2.05;;;1.23;;
56141;SDS011;42018;48.588;10.836;2023-04-24T02:21:41;4.05;;;1.40;;
56141;SDS011;42018;48.588;10.836;2023-04-24T02:24:26;2.40;;;1.20;;
56141;SDS011;42018;48.588;10.836;2023-04-24T02:27:12;3.70;;;1.35;;
56141;SDS011;42018;48.588;10.836;2023-04-24T02:29:57;2.72;;;1.10;;
56141;SDS011;42018;48.588;10.836;2023-04-24T02:32:42;2.58;;;1.30;;
56141;SDS011;42018;48.588;10.836;2023-04-24T02:35:28;3.15;;;1.40;;
56141;SDS011;42018;48.588;10.836;2023-04-24T02:38:13;2.72;;;1.27;;
56141;SDS011;42018;48.588;10.836;2023-04-24T02:40:59;3.78;;;1.40;;
56141;SDS011;42018;48.588;10.836;2023-04-24T02:43:45;3.47;;;1.10;;
56141;SDS011;42018;48.588;10.836;2023-04-24T02:46:31;2.50;;;1.30;;
56141;SDS011;42018;48.588;10.836;2023-04-24T02:49:16;3.20;;;1.40;;
56141;SDS011;42018;48.588;10.836;2023-04-24T02:52:01;2.08;;;1.13;;
56141;SDS011;42018;48.588;10.836;2023-04-24T02:54:47;2.65;;;1.30;;
56141;SDS011;42018;48.588;10.836;2023-04-24T02:57:32;2.72;;;1.30;;
56141;SDS011;42018;48.588;10.836;2023-04-24T03:00:17;2.05;;;1.17;;
56141;SDS011;42018;48.588;10.836;2023-04-24T03:03:03;4.15;;;1.40;;
56141;SDS011;42018;48.588;10.836;2023-04-24T03:05:48;3.15;;;1.30;;
56141;SDS011;42018;48.588;10.836;2023-04-24T03:08:34;2.67;;;1.23;;
56141;SDS011;42018;48.588;10.836;2023-04-24T03:11:20;2.83;;;1.30;;
56141;SDS011;42018;48.588;10.836;2023-04-24T03:14:05;3.60;;;1.27;;
56141;SDS011;42018;48.588;10.836;2023-04-24T03:16:51;2.15;;;1.17;;
56141;SDS011;42018;48.588;10.836;2023-04-24T03:19:36;2.97;;;1.33;;
56141;SDS011;42018;48.588;10.836;2023-04-24T03:22:21;2.30;;;1.20;;
56141;SDS011;42018;48.588;10.836;2023-04-24T03:25:07;2.90;;;1.30;;
56141;SDS011;42018;48.588;10.836;2023-04-24T03:27:54;1.92;;;1.10;;
56141;SDS011;42018;48.588;10.836;2023-04-24T03:30:40;2.15;;;1.23;;
56141;SDS011;42018;48.588;10.836;2023-04-24T03:33:25;3.30;;;1.20;;
56141;SDS011;42018;48.588;10.836;2023-04-24T03:36:10;2.25;;;1.20;;
56141;SDS011;42018;48.588;10.836;2023-04-24T03:38:56;1.95;;;1.20;;
56141;SDS011;42018;48.588;10.836;2023-04-24T03:41:41;3.03;;;1.15;;
56141;SDS011;42018;48.588;10.836;2023-04-24T03:44:26;2.95;;;1.17;;
56141;SDS011;42018;48.588;10.836;2023-04-24T03:50:18;3.20;;;1.30;;
56141;SDS011;42018;48.588;10.836;2023-04-24T03:53:03;3.10;;;1.35;;
56141;SDS011;42018;48.588;10.836;2023-04-24T03:55:48;2.65;;;1.30;;
56141;SDS011;42018;48.588;10.836;2023-04-24T03:58:34;3.90;;;1.20;;
56141;SDS011;42018;48.588;10.836;2023-04-24T04:01:27;2.83;;;1.20;;
56141;SDS011;42018;48.588;10.836;2023-04-24T04:04:13;2.08;;;1.20;;
56141;SDS011;42018;48.588;10.836;2023-04-24T04:06:58;2.33;;;1.20;;
56141;SDS011;42018;48.588;10.836;2023-04-24T04:09:46;3.30;;;1.35;;
56141;SDS011;42018;48.588;10.836;2023-04-24T04:12:31;3.80;;;1.33;;
56141;SDS011;42018;48.588;10.836;2023-04-24T04:15:15;2.58;;;1.23;;
56141;SDS011;42018;48.588;10.836;2023-04-24T04:18:11;3.97;;;1.40;;
56141;SDS011;42018;48.588;10.836;2023-04-24T04:20:56;3.05;;;1.30;;
56141;SDS011;42018;48.588;10.836;2023-04-24T04:23:42;2.42;;;1.40;;
56141;SDS011;42018;48.588;10.836;2023-04-24T04:26:27;2.50;;;1.30;;
56141;SDS011;42018;48.588;10.836;2023-04-24T04:29:13;3.65;;;1.70;;
56141;SDS011;42018;48.588;10.836;2023-04-24T04:32:16;3.22;;;1.40;;
56141;SDS011;42018;48.588;10.836;2023-04-24T04:35:02;3.50;;;1.60;;
56141;SDS011;42018;48.588;10.836;2023-04-24T04:37:50;3.25;;;1.50;;
56141;SDS011;42018;48.588;10.836;2023-04-24T04:40:36;3.13;;;1.40;;
56141;SDS011;42018;48.588;10.836;2023-04-24T04:43:21;2.92;;;1.48;;
56141;SDS011;42018;48.588;10.836;2023-04-24T04:46:09;3.33;;;1.70;;
56141;SDS011;42018;48.588;10.836;2023-04-24T04:48:56;4.03;;;1.55;;
56141;SDS011;42018;48.588;10.836;2023-04-24T04:51:41;3.13;;;1.60;;
56141;SDS011;42018;48.588;10.836;2023-04-24T04:54:27;2.85;;;1.45;;
56141;SDS011;42018;48.588;10.836;2023-04-24T04:57:12;2.97;;;1.58;;
56141;SDS011;42018;48.588;10.836;2023-04-24T04:59:58;2.63;;;1.40;;
56141;SDS011;42018;48.588;10.836;2023-04-24T05:02:43;4.30;;;1.70;;
56141;SDS011;42018;48.588;10.836;2023-04-24T05:05:28;2.90;;;1.50;;
56141;SDS011;42018;48.588;10.836;2023-04-24T05:08:14;3.67;;;1.50;;
56141;SDS011;42018;48.588;10.836;2023-04-24T05:11:00;3.00;;;1.58;;
56141;SDS011;42018;48.588;10.836;2023-04-24T05:13:45;3.00;;;1.60;;
56141;SDS011;42018;48.588;10.836;2023-04-24T05:16:30;3.75;;;1.65;;
56141;SDS011;42018;48.588;10.836;2023-04-24T05:19:16;4.05;;;1.70;;
56141;SDS011;42018;48.588;10.836;2023-04-24T05:21:59;3.65;;;1.70;;
56141;SDS011;42018;48.588;10.836;2023-04-24T05:25:00;3.80;;;1.50;;
56141;SDS011;42018;48.588;10.836;2023-04-24T05:31:27;2.78;;;1.60;;
56141;SDS011;42018;48.588;10.836;2023-04-24T05:34:12;3.15;;;1.40;;
56141;SDS011;42018;48.588;10.836;2023-04-24T05:36:57;3.92;;;1.40;;
56141;SDS011;42018;48.588;10.836;2023-04-24T05:39:43;2.80;;;1.40;;
56141;SDS011;42018;48.588;10.836;2023-04-24T05:42:28;2.40;;;1.20;;
56141;SDS011;42018;48.588;10.836;2023-04-24T05:48:40;2.72;;;1.20;;
56141;SDS011;42018;48.588;10.836;2023-04-24T05:55:11;2.22;;;1.20;;
56141;SDS011;42018;48.588;10.836;2023-04-24T06:13:12;3.28;;;1.20;;
56141;SDS011;42018;48.588;10.836;2023-04-24T06:15:58;2.50;;;1.00;;
56141;SDS011;42018;48.588;10.836;2023-04-24T07:15:39;3.25;;;1.60;;
56141;SDS011;42018;48.588;10.836;2023-04-24T07:18:25;3.13;;;1.60;;
56141;SDS011;42018;48.588;10.836;2023-04-24T07:21:11;3.33;;;1.70;;
56141;SDS011;42018;48.588;10.836;2023-04-24T07:23:58;3.90;;;1.70;;
56141;SDS011;42018;48.588;10.836;2023-04-24T07:26:44;3.60;;;1.85;;
56141;SDS011;42018;48.588;10.836;2023-04-24T07:29:31;4.32;;;2.53;;
56141;SDS011;42018;48.588;10.836;2023-04-24T07:32:16;3.97;;;2.00;;
56141;SDS011;42018;48.588;10.836;2023-04-24T07:35:02;4.35;;;2.40;;
56141;SDS011;42018;48.588;10.836;2023-04-24T07:37:47;4.53;;;2.60;;
56141;SDS011;42018;48.588;10.836;2023-04-24T07:40:33;4.20;;;2.30;;
56141;SDS011;42018;48.588;10.836;2023-04-24T07:43:17;4.82;;;2.30;;
56141;SDS011;42018;48.588;10.836;2023-04-24T07:46:05;4.75;;;2.00;;
56141;SDS011;42018;48.588;10.836;2023-04-24T07:48:51;3.45;;;1.80;;
56141;SDS011;42018;48.588;10.836;2023-04-24T07:51:37;3.55;;;1.80;;
56141;SDS011;42018;48.588;10.836;2023-04-24T07:54:43;4.18;;;1.80;;
56141;SDS011;42018;48.588;10.836;2023-04-24T08:00:54;3.83;;;1.90;;
56141;SDS011;42018;48.588;10.836;2023-04-24T08:03:43;3.25;;;1.70;;
56141;SDS011;42018;48.588;10.836;2023-04-24T08:06:29;3.90;;;1.90;;
56141;SDS011;42018;48.588;10.836;2023-04-24T08:09:15;4.53;;;1.67;;
56141;SDS011;42018;48.588;10.836;2023-04-24T08:12:00;3.33;;;1.70;;
56141;SDS011;42018;48.588;10.836;2023-04-24T08:14:47;4.00;;;1.60;;
56141;SDS011;42018;48.588;10.836;2023-04-24T08:17:33;3.50;;;1.65;;
56141;SDS011;42018;48.588;10.836;2023-04-24T08:20:20;3.50;;;1.63;;
56141;SDS011;42018;48.588;10.836;2023-04-24T08:23:25;3.03;;;1.50;;
56141;SDS011;42018;48.588;10.836;2023-04-24T08:26:11;3.83;;;1.83;;
56141;SDS011;42018;48.588;10.836;2023-04-24T08:32:43;2.55;;;1.40;;
56141;SDS011;42018;48.588;10.836;2023-04-24T08:35:37;3.92;;;1.80;;
56141;SDS011;42018;48.588;10.836;2023-04-24T08:46:03;2.70;;;1.50;;
56141;SDS011;42018;48.588;10.836;2023-04-24T08:49:00;3.28;;;1.90;;
56141;SDS011;42018;48.588;10.836;2023-04-24T09:47:58;4.13;;;1.80;;
56141;SDS011;42018;48.588;10.836;2023-04-24T09:50:45;2.65;;;1.40;;
56141;SDS011;42018;48.588;10.836;2023-04-24T09:53:32;4.32;;;1.58;;
56141;SDS011;42018;48.588;10.836;2023-04-24T10:03:43;4.00;;;1.67;;
56141;SDS011;42018;48.588;10.836;2023-04-24T13:56:23;2.08;;;1.00;;
56141;SDS011;42018;48.588;10.836;2023-04-24T14:21:35;1.70;;;0.85;;
56141;SDS011;42018;48.588;10.836;2023-04-24T14:24:21;1.70;;;0.90;;
56141;SDS011;42018;48.588;10.836;2023-04-24T14:34:52;2.17;;;1.10;;
56141;SDS011;42018;48.588;10.836;2023-04-24T14:37:54;2.97;;;1.20;;
56141;SDS011;42018;48.588;10.836;2023-04-24T14:55:48;3.35;;;1.10;;
56141;SDS011;42018;48.588;10.836;2023-04-24T14:58:39;3.22;;;1.10;;
56141;SDS011;42018;48.588;10.836;2023-04-24T15:01:25;2.65;;;1.20;;
56141;SDS011;42018;48.588;10.836;2023-04-24T15:04:11;2.17;;;1.02;;
56141;SDS011;42018;48.588;10.836;2023-04-24T15:07:04;2.67;;;1.30;;
56141;SDS011;42018;48.588;10.836;2023-04-24T15:09:49;1.77;;;1.00;;
56141;SDS011;42018;48.588;10.836;2023-04-24T15:16:05;2.53;;;1.08;;
56141;SDS011;42018;48.588;10.836;2023-04-24T15:18:54;2.03;;;1.02;;
56141;SDS011;42018;48.588;10.836;2023-04-24T15:21:39;2.47;;;1.20;;
56141;SDS011;42018;48.588;10.836;2023-04-24T15:24:42;2.50;;;1.10;;
56141;SDS011;42018;48.588;10.836;2023-04-24T15:31:10;2.22;;;1.10;;
56141;SDS011;42018;48.588;10.836;2023-04-24T15:34:11;2.40;;;1.08;;
56141;SDS011;42018;48.588;10.836;2023-04-24T15:36:56;2.60;;;1.10;;
56141;SDS011;42018;48.588;10.836;2023-04-24T15:39:48;2.35;;;1.10;;
56141;SDS011;42018;48.588;10.836;2023-04-24T15:42:36;2.22;;;1.17;;
56141;SDS011;42018;48.588;10.836;2023-04-24T15:45:27;4.25;;;1.30;;
56141;SDS011;42018;48.588;10.836;2023-04-24T15:51:25;3.00;;;1.20;;
56141;SDS011;42018;48.588;10.836;2023-04-24T15:54:18;3.00;;;1.30;;
56141;SDS011;42018;48.588;10.836;2023-04-24T15:57:13;1.90;;;1.00;;
56141;SDS011;42018;48.588;10.836;2023-04-24T15:59:58;2.75;;;1.20;;
56141;SDS011;42018;48.588;10.836;2023-04-24T16:02:44;3.30;;;1.30;;
56141;SDS011;42018;48.588;10.836;2023-04-24T16:05:36;2.65;;;1.20;;
56141;SDS011;42018;48.588;10.836;2023-04-24T16:08:27;3.47;;;1.30;;
56141;SDS011;42018;48.588;10.836;2023-04-24T16:11:12;1.27;;;1.00;;
56141;SDS011;42018;48.588;10.836;2023-04-24T16:17:09;2.70;;;1.30;;
56141;SDS011;42018;48.588;10.836;2023-04-24T16:19:57;2.80;;;1.40;;
56141;SDS011;42018;48.588;10.836;2023-04-24T16:23:02;2.90;;;1.33;;
56141;SDS011;42018;48.588;10.836;2023-04-24T16:25:51;2.53;;;1.33;;
56141;SDS011;42018;48.588;10.836;2023-04-24T16:32:10;5.10;;;1.30;;
56141;SDS011;42018;48.588;10.836;2023-04-24T16:34:56;3.30;;;1.40;;
56141;SDS011;42018;48.588;10.836;2023-04-24T16:37:55;3.40;;;1.52;;
56141;SDS011;42018;48.588;10.836;2023-04-24T16:40:41;3.33;;;1.50;;
56141;SDS011;42018;48.588;10.836;2023-04-24T16:43:26;3.60;;;1.30;;
56141;SDS011;42018;48.588;10.836;2023-04-24T16:46:12;2.58;;;1.38;;
56141;SDS011;42018;48.588;10.836;2023-04-24T16:48:57;3.30;;;1.40;;
56141;SDS011;42018;48.588;10.836;2023-04-24T16:51:42;3.13;;;1.40;;
56141;SDS011;42018;48.588;10.836;2023-04-24T16:54:28;3.60;;;1.73;;
56141;SDS011;42018;48.588;10.836;2023-04-24T16:57:19;2.90;;;1.45;;
56141;SDS011;42018;48.588;10.836;2023-04-24T17:00:05;2.10;;;1.40;;
56141;SDS011;42018;48.588;10.836;2023-04-24T17:02:52;3.90;;;1.60;;
56141;SDS011;42018;48.588;10.836;2023-04-24T17:05:37;2.95;;;1.60;;
56141;SDS011;42018;48.588;10.836;2023-04-24T17:08:23;2.83;;;1.50;;
56141;SDS011;42018;48.588;10.836;2023-04-24T17:11:08;4.25;;;1.80;;
56141;SDS011;42018;48.588;10.836;2023-04-24T17:16:44;3.45;;;1.63;;
56141;SDS011;42018;48.588;10.836;2023-04-24T17:19:30;3.75;;;1.70;;
56141;SDS011;42018;48.588;10.836;2023-04-24T17:22:15;3.90;;;1.70;;
56141;SDS011;42018;48.588;10.836;2023-04-24T17:25:01;3.60;;;1.75;;
56141;SDS011;42018;48.588;10.836;2023-04-24T17:27:46;3.20;;;1.48;;
56141;SDS011;42018;48.588;10.836;2023-04-24T17:30:32;3.38;;;1.80;;
56141;SDS011;42018;48.588;10.836;2023-04-24T17:33:17;3.55;;;1.70;;
56141;SDS011;42018;48.588;10.836;2023-04-24T17:36:02;3.85;;;1.80;;
56141;SDS011;42018;48.588;10.836;2023-04-24T17:38:51;4.20;;;1.60;;
56141;SDS011;42018;48.588;10.836;2023-04-24T17:41:39;3.40;;;1.73;;
56141;SDS011;42018;48.588;10.836;2023-04-24T17:44:24;3.63;;;2.03;;
56141;SDS011;42018;48.588;10.836;2023-04-24T17:47:10;4.40;;;1.80;;
56141;SDS011;42018;48.588;10.836;2023-04-24T17:49:55;3.45;;;1.73;;
56141;SDS011;42018;48.588;10.836;2023-04-24T17:52:41;3.60;;;1.77;;
56141;SDS011;42018;48.588;10.836;2023-04-24T17:55:26;3.30;;;1.60;;
56141;SDS011;42018;48.588;10.836;2023-04-24T17:58:12;3.40;;;1.70;;
56141;SDS011;42018;48.588;10.836;2023-04-24T18:00:57;3.38;;;1.80;;
56141;SDS011;42018;48.588;10.836;2023-04-24T18:03:43;3.13;;;1.83;;
56141;SDS011;42018;48.588;10.836;2023-04-24T18:06:28;3.38;;;1.88;;
56141;SDS011;42018;48.588;10.836;2023-04-24T18:09:14;3.80;;;2.00;;
56141;SDS011;42018;48.588;10.836;2023-04-24T18:12:01;3.10;;;1.70;;
56141;SDS011;42018;48.588;10.836;2023-04-24T18:14:48;4.50;;;2.65;;
56141;SDS011;42018;48.588;10.836;2023-04-24T18:17:33;6.10;;;4.32;;
56141;SDS011;42018;48.588;10.836;2023-04-24T18:20:18;4.85;;;2.90;;
56141;SDS011;42018;48.588;10.836;2023-04-24T18:23:04;3.60;;;1.90;;
56141;SDS011;42018;48.588;10.836;2023-04-24T18:25:50;4.00;;;2.28;;
56141;SDS011;42018;48.588;10.836;2023-04-24T18:28:35;4.43;;;2.20;;
56141;SDS011;42018;48.588;10.836;2023-04-24T18:31:21;4.57;;;1.83;;
56141;SDS011;42018;48.588;10.836;2023-04-24T18:34:06;4.90;;;2.10;;
56141;SDS011;42018;48.588;10.836;2023-04-24T18:36:52;3.90;;;2.13;;
56141;SDS011;42018;48.588;10.836;2023-04-24T18:39:38;4.05;;;2.10;;
56141;SDS011;42018;48.588;10.836;2023-04-24T18:42:23;4.30;;;2.17;;
56141;SDS011;42018;48.588;10.836;2023-04-24T18:45:09;4.50;;;2.10;;
56141;SDS011;42018;48.588;10.836;2023-04-24T18:47:57;3.60;;;2.08;;
56141;SDS011;42018;48.588;10.836;2023-04-24T18:51:06;3.30;;;1.70;;
56141;SDS011;42018;48.588;10.836;2023-04-24T18:53:52;5.18;;;2.80;;
56141;SDS011;42018;48.588;10.836;2023-04-24T18:56:38;4.18;;;2.17;;
56141;SDS011;42018;48.588;10.836;2023-04-24T18:59:23;2.85;;;1.73;;
56141;SDS011;42018;48.588;10.836;2023-04-24T19:02:09;4.10;;;2.28;;
56141;SDS011;42018;48.588;10.836;2023-04-24T19:04:55;13.05;;;8.85;;
56141;SDS011;42018;48.588;10.836;2023-04-24T19:07:40;18.40;;;10.50;;
56141;SDS011;42018;48.588;10.836;2023-04-24T19:10:26;24.50;;;13.90;;
56141;SDS011;42018;48.588;10.836;2023-04-24T19:13:12;16.63;;;10.57;;
56141;SDS011;42018;48.588;10.836;2023-04-24T19:15:58;9.07;;;5.85;;
56141;SDS011;42018;48.588;10.836;2023-04-24T19:18:43;5.78;;;3.58;;
56141;SDS011;42018;48.588;10.836;2023-04-24T19:21:29;4.30;;;2.10;;
56141;SDS011;42018;48.588;10.836;2023-04-24T19:24:15;4.10;;;2.30;;
56141;SDS011;42018;48.588;10.836;2023-04-24T19:27:02;3.50;;;1.80;;
56141;SDS011;42018;48.588;10.836;2023-04-24T19:29:48;3.88;;;2.13;;
56141;SDS011;42018;48.588;10.836;2023-04-24T19:32:34;4.38;;;2.40;;
56141;SDS011;42018;48.588;10.836;2023-04-24T19:35:20;3.90;;;2.20;;
56141;SDS011;42018;48.588;10.836;2023-04-24T19:38:05;3.95;;;1.90;;
56141;SDS011;42018;48.588;10.836;2023-04-24T19:40:50;3.47;;;1.90;;
56141;SDS011;42018;48.588;10.836;2023-04-24T19:43:36;4.90;;;2.17;;
56141;SDS011;42018;48.588;10.836;2023-04-24T19:46:21;3.45;;;1.90;;
56141;SDS011;42018;48.588;10.836;2023-04-24T19:49:07;4.38;;;1.90;;
56141;SDS011;42018;48.588;10.836;2023-04-24T19:51:52;3.97;;;2.13;;
56141;SDS011;42018;48.588;10.836;2023-04-24T19:54:37;3.97;;;2.00;;
56141;SDS011;42018;48.588;10.836;2023-04-24T19:57:23;3.90;;;2.08;;
56141;SDS011;42018;48.588;10.836;2023-04-24T20:00:08;4.35;;;2.10;;
56141;SDS011;42018;48.588;10.836;2023-04-24T20:02:54;3.75;;;2.10;;
56141;SDS011;42018;48.588;10.836;2023-04-24T20:05:39;4.40;;;2.50;;
56141;SDS011;42018;48.588;10.836;2023-04-24T20:08:25;4.30;;;2.50;;
56141;SDS011;42018;48.588;10.836;2023-04-24T20:11:10;5.28;;;2.55;;
56141;SDS011;42018;48.588;10.836;2023-04-24T20:13:56;4.50;;;2.60;;
56141;SDS011;42018;48.588;10.836;2023-04-24T20:16:41;4.80;;;2.90;;
56141;SDS011;42018;48.588;10.836;2023-04-24T20:19:27;5.38;;;3.42;;
56141;SDS011;42018;48.588;10.836;2023-04-24T20:22:12;5.00;;;3.13;;
56141;SDS011;42018;48.588;10.836;2023-04-24T20:24:57;5.50;;;3.15;;
56141;SDS011;42018;48.588;10.836;2023-04-24T20:27:43;4.70;;;2.90;;
56141;SDS011;42018;48.588;10.836;2023-04-24T20:30:28;5.60;;;2.78;;
56141;SDS011;42018;48.588;10.836;2023-04-24T20:33:15;5.35;;;3.08;;
56141;SDS011;42018;48.588;10.836;2023-04-24T20:36:00;7.32;;;4.40;;
56141;SDS011;42018;48.588;10.836;2023-04-24T20:38:46;7.80;;;5.05;;
56141;SDS011;42018;48.588;10.836;2023-04-24T20:41:31;6.20;;;3.95;;
56141;SDS011;42018;48.588;10.836;2023-04-24T20:44:17;5.80;;;3.60;;
56141;SDS011;42018;48.588;10.836;2023-04-24T20:47:03;5.70;;;2.92;;
56141;SDS011;42018;48.588;10.836;2023-04-24T20:49:48;6.03;;;2.70;;
56141;SDS011;42018;48.588;10.836;2023-04-24T20:52:34;4.10;;;2.40;;
56141;SDS011;42018;48.588;10.836;2023-04-24T20:55:19;4.53;;;2.47;;
56141;SDS011;42018;48.588;10.836;2023-04-24T20:58:05;4.10;;;2.50;;
56141;SDS011;42018;48.588;10.836;2023-04-24T21:00:50;4.30;;;2.75;;
56141;SDS011;42018;48.588;10.836;2023-04-24T21:03:36;4.55;;;2.53;;
56141;SDS011;42018;48.588;10.836;2023-04-24T21:06:21;4.35;;;2.50;;
56141;SDS011;42018;48.588;10.836;2023-04-24T21:09:06;5.38;;;2.90;;
56141;SDS011;42018;48.588;10.836;2023-04-24T21:11:52;4.95;;;2.72;;
56141;SDS011;42018;48.588;10.836;2023-04-24T21:14:37;5.07;;;2.63;;
56141;SDS011;42018;48.588;10.836;2023-04-24T21:17:23;3.85;;;2.40;;
56141;SDS011;42018;48.588;10.836;2023-04-24T21:20:08;4.07;;;2.38;;
56141;SDS011;42018;48.588;10.836;2023-04-24T21:22:54;5.55;;;2.45;;
56141;SDS011;42018;48.588;10.836;2023-04-24T21:25:39;3.85;;;2.00;;
56141;SDS011;42018;48.588;10.836;2023-04-24T21:28:25;4.03;;;2.28;;
56141;SDS011;42018;48.588;10.836;2023-04-24T21:31:10;4.15;;;2.67;;
56141;SDS011;42018;48.588;10.836;2023-04-24T21:33:56;5.20;;;3.40;;
56141;SDS011;42018;48.588;10.836;2023-04-24T21:36:41;5.03;;;3.25;;
56141;SDS011;42018;48.588;10.836;2023-04-24T21:39:26;4.80;;;2.90;;
56141;SDS011;42018;48.588;10.836;2023-04-24T21:42:12;5.07;;;3.28;;
56141;SDS011;42018;48.588;10.836;2023-04-24T21:44:58;4.95;;;3.30;;
56141;SDS011;42018;48.588;10.836;2023-04-24T21:47:43;5.47;;;3.50;;
56141;SDS011;42018;48.588;10.836;2023-04-24T21:50:28;5.70;;;3.92;;
56141;SDS011;42018;48.588;10.836;2023-04-24T21:53:14;5.40;;;3.95;;
56141;SDS011;42018;48.588;10.836;2023-04-24T21:55:59;5.80;;;3.55;;
56141;SDS011;42018;48.588;10.836;2023-04-24T21:58:45;5.28;;;3.38;;
56141;SDS011;42018;48.588;10.836;2023-04-24T22:01:31;4.68;;;3.35;;
56141;SDS011;42018;48.588;10.836;2023-04-24T22:04:17;6.88;;;3.33;;
56141;SDS011;42018;48.588;10.836;2023-04-24T22:07:03;6.05;;;4.07;;
56141;SDS011;42018;48.588;10.836;2023-04-24T22:09:48;4.50;;;2.90;;
56141;SDS011;42018;48.588;10.836;2023-04-24T22:12:33;5.05;;;2.90;;
56141;SDS011;42018;48.588;10.836;2023-04-24T22:15:19;4.93;;;3.15;;
56141;SDS011;42018;48.588;10.836;2023-04-24T22:18:05;3.97;;;2.58;;
56141;SDS011;42018;48.588;10.836;2023-04-24T22:20:50;4.30;;;2.75;;
56141;SDS011;42018;48.588;10.836;2023-04-24T22:23:36;4.57;;;2.80;;
56141;SDS011;42018;48.588;10.836;2023-04-24T22:26:21;4.63;;;2.80;;
56141;SDS011;42018;48.588;10.836;2023-04-24T22:29:06;4.93;;;2.92;;
56141;SDS011;42018;48.588;10.836;2023-04-24T22:31:52;4.95;;;2.85;;
56141;SDS011;42018;48.588;10.836;2023-04-24T22:34:40;4.78;;;2.75;;
56141;SDS011;42018;48.588;10.836;2023-04-24T22:37:25;4.70;;;2.88;;
56141;SDS011;42018;48.588;10.836;2023-04-24T22:40:11;4.65;;;2.30;;
56141;SDS011;42018;48.588;10.836;2023-04-24T22:42:56;4.90;;;2.65;;
56141;SDS011;42018;48.588;10.836;2023-04-24T22:45:42;4.72;;;2.60;;
56141;SDS011;42018;48.588;10.836;2023-04-24T22:48:27;3.78;;;2.28;;
56141;SDS011;42018;48.588;10.836;2023-04-24T22:51:12;4.32;;;2.50;;
56141;SDS011;42018;48.588;10.836;2023-04-24T22:53:58;4.20;;;2.47;;
56141;SDS011;42018;48.588;10.836;2023-04-24T22:56:46;4.07;;;2.50;;
56141;SDS011;42018;48.588;10.836;2023-04-24T22:59:32;4.25;;;2.63;;
56141;SDS011;42018;48.588;10.836;2023-04-24T23:02:17;4.80;;;2.58;;
56141;SDS011;42018;48.588;10.836;2023-04-24T23:05:02;4.15;;;2.60;;
56141;SDS011;42018;48.588;10.836;2023-04-24T23:07:48;4.10;;;2.28;;
56141;SDS011;42018;48.588;10.836;2023-04-24T23:10:34;5.05;;;2.92;;
56141;SDS011;42018;48.588;10.836;2023-04-24T23:13:19;4.75;;;2.53;;
56141;SDS011;42018;48.588;10.836;2023-04-24T23:16:05;4.72;;;2.65;;
56141;SDS011;42018;48.588;10.836;2023-04-24T23:18:50;6.28;;;2.70;;
56141;SDS011;42018;48.588;10.836;2023-04-24T23:21:36;3.70;;;2.20;;
56141;SDS011;42018;48.588;10.836;2023-04-24T23:24:21;5.75;;;2.67;;
56141;SDS011;42018;48.588;10.836;2023-04-24T23:27:06;4.35;;;2.25;;
56141;SDS011;42018;48.588;10.836;2023-04-24T23:29:52;3.95;;;2.10;;
56141;SDS011;42018;48.588;10.836;2023-04-24T23:32:37;4.50;;;2.10;;
56141;SDS011;42018;48.588;10.836;2023-04-24T23:35:22;6.18;;;2.45;;
56141;SDS011;42018;48.588;10.836;2023-04-24T23:38:08;4.78;;;2.30;;
56141;SDS011;42018;48.588;10.836;2023-04-24T23:40:53;4.65;;;2.30;;
56141;SDS011;42018;48.588;10.836;2023-04-24T23:43:38;4.20;;;2.10;;
56141;SDS011;42018;48.588;10.836;2023-04-24T23:46:24;4.07;;;2.22;;
56141;SDS011;42018;48.588;10.836;2023-04-24T23:49:09;4.30;;;2.25;;
56141;SDS011;42018;48.588;10.836;2023-04-24T23:51:54;3.70;;;2.20;;
56141;SDS011;42018;48.588;10.836;2023-04-24T23:54:40;5.00;;;2.25;;
56141;SDS011;42018;48.588;10.836;2023-04-24T23:57:25;4.45;;;2.55;;
